Terminal Aerodrome Forecast
Issued by NWS

Current Version | Previous Version | Text Only | Print | Product List | Glossary Off
Versions: 1 2 3 4 5 6 7 8 9 10 11 12 13 14 15 16 17 18 19 20

179
FTUS41 KILN 180541
TAFLCK
TAF
KLCK 180541Z 1806/1906 17009G18KT 6SM -SHRA OVC080 WS020/20045KT
     FM181100 19011G19KT 4SM -SHRA VCTS OVC014CB WS020/20045KT
     FM181500 20015G24KT P6SM VCSH OVC012
     FM182300 21017G28KT 4SM SHRA BR OVC012
     FM190200 28021G28KT 4SM -SHRA OVC012
     FM190400 29022G34KT P6SM OVC015=

USA.gov is the U.S. government's official web portal to all federal, state and local government web resources and services.